Texas General Land Office
 Texas General Land Office
 George P. Bush, Commissioner

 Oil Spill Prevention
 & Response

Texas Automated Buoy System
Real Time Ocean Observations
Supporting Oil Spill Prevention and
Response since 1995
Geochemical and Environmental Research Group

NOAA - NDBC Buoy 42035 -- Texas Automated Buoy System

NBDC Buoy 42035
Galveston
Conditions at 10/19/2018 08:20 UTC (10/19/2018 08:20 UTC)
29° 14.7830'N   94° 24.5000'W
22NM East of Galveston, TX
Anemometer height: 5m
Water Depth: 52 feet (16 meters)
Wind: 11.0 m/s (21.4 kts)
          From 70°T (ENE)
Wind Gust: 14.00 m/s (27.2 kts) Pressure: 1020.0 mb (30.12 inHg)
Air Temp: 24°C (76 °F) Dewpoint: 23°C (73°F) Relative Humidity: 91%
Sea Surf Temp: 26 °C (79 °F) Wave Height: -99.0m (-324.8 ft) Wave Period: -99
  


IMPORTANT: Notice to Mariners


Today's Velocity Data

  Buoy     Date      Time     East   North   Speed  Dir(°T) Wave Ht WvPer  Num
|  ID  |          |  (UTC) | (m/s) | (m/s) | (m/s) |(FROM) |  (m)  | secs| pts |
+======+==========+========+=======+=======+=======+=======+=======+=====+=====+
  42035 10/16/2018 00:10:00    0.00    9.00    9.00       0     0.0     0     1
  42035 10/16/2018 00:20:00   -1.56    8.86    9.00     350     1.1     4     1
  42035 10/16/2018 00:30:00   -1.56    8.86    9.00     350     0.0     0     1
  42035 10/16/2018 00:40:00   -1.56    8.86    9.00     350     0.0     0     1
  42035 10/16/2018 00:50:00   -1.74    9.85   10.00     350     0.0     0     1
  42035 10/16/2018 06:00:00    2.56    9.78   10.11      15     0.2     1    31
  42035 10/16/2018 06:10:00    7.07    8.43   11.00      40     0.0     0     1
  42035 10/16/2018 06:20:00    6.43    7.66   10.00      40     1.4     4     1
  42035 10/16/2018 06:30:00    6.43    7.66   10.00      40     0.0     0     1
  42035 10/16/2018 06:40:00    6.43    7.66   10.00      40     0.0     0     1
  42035 10/16/2018 06:50:00    6.43    7.66   10.00      40     0.0     0     1
  42035 10/16/2018 12:00:00    5.92    7.12    9.26      40     0.3     1    31
  42035 10/16/2018 12:10:00    5.00    8.66   10.00      30     0.0     0     1
  42035 10/16/2018 12:20:00    5.00    8.66   10.00      30     1.5     5     1
  42035 10/16/2018 12:30:00    6.43    7.66   10.00      40     0.0     0     1
  42035 10/16/2018 12:40:00    7.07    8.43   11.00      40     0.0     0     1
  42035 10/16/2018 12:50:00    5.00    8.66   10.00      30     0.0     0     1
  42035 10/16/2018 18:00:00    4.65    8.37    9.58      29     0.4     1    31
  42035 10/16/2018 18:10:00    3.08    8.46    9.00      20     0.0     0     1
  42035 10/16/2018 18:20:00    3.08    8.46    9.00      20     1.3     5     1
  42035 10/16/2018 18:30:00    3.08    8.46    9.00      20     0.0     0     1
  42035 10/16/2018 18:40:00    3.08    8.46    9.00      20     0.0     0     1
  42035 10/16/2018 18:50:00    3.08    8.46    9.00      20     0.0     0     1
  42035 10/17/2018 00:00:00    2.18    7.24    7.56      17     0.2     1    31
  42035 10/17/2018 00:10:00    0.00    7.00    7.00       0     1.1     0     1
  42035 10/17/2018 00:20:00    0.00    7.00    7.00       0     1.1     0     1
  42035 10/17/2018 00:30:00    0.00    7.00    7.00       0     0.0     0     1
  42035 10/17/2018 00:40:00    0.00    7.00    7.00       0     0.0     0     1
  42035 10/17/2018 00:50:00    0.00    7.00    7.00       0     0.0     0     1
  42035 10/17/2018 06:00:00    3.88    7.86    8.76      26     0.2     1    31
  42035 10/17/2018 06:10:00    1.22    6.89    7.00      10     0.0     0     1
  42035 10/17/2018 06:20:00    2.74    7.52    8.00      20     1.0     5     1
  42035 10/17/2018 06:30:00    2.74    7.52    8.00      20     0.0     0     1
  42035 10/17/2018 06:40:00    1.39    7.88    8.00      10     0.0     0     1
  42035 10/17/2018 06:50:00    2.39    6.58    7.00      20     0.0     0     1
  42035 10/17/2018 12:00:00    2.39    6.95    7.35      19     0.2     1    31
  42035 10/17/2018 12:10:00    1.39    7.88    8.00      10     1.0     0     1
  42035 10/17/2018 12:20:00    1.39    7.88    8.00      10     1.0     5     1
  42035 10/17/2018 12:30:00    1.39    7.88    8.00      10     0.0     0     1
  42035 10/17/2018 12:40:00    1.22    6.89    7.00      10     0.0     0     1
  42035 10/17/2018 12:50:00    1.39    7.88    8.00      10     0.0     0     1
  42035 10/17/2018 18:00:00    1.98    7.07    7.34      16     0.2     1    31
  42035 10/17/2018 18:10:00    4.00    6.93    8.00      30     0.0     0     1
  42035 10/17/2018 18:20:00    2.74    7.52    8.00      20     1.0     5     1
  42035 10/17/2018 18:30:00    4.00    6.93    8.00      30     0.0     0     1
  42035 10/17/2018 18:40:00    3.50    6.06    7.00      30     0.0     0     1
  42035 10/17/2018 18:50:00    3.50    6.06    7.00      30     0.0     0     1
  42035 10/18/2018 00:00:00    2.70    7.28    7.77      20     0.2     1    31
  42035 10/18/2018 00:10:00    4.50    7.79    9.00      30     0.0     0     1
  42035 10/18/2018 00:20:00    4.50    7.79    9.00      30     1.1     5     1
  42035 10/18/2018 00:30:00    4.50    7.79    9.00      30     0.0     0     1
  42035 10/18/2018 00:40:00    3.08    8.46    9.00      20     0.0     0     1
  42035 10/18/2018 00:50:00    3.08    8.46    9.00      20     0.0     0     1
  42035 10/18/2018 06:00:00    5.95    8.14   10.09      36     0.3     1    31
  42035 10/18/2018 06:10:00    7.07    8.43   11.00      40     1.6     0     1
  42035 10/18/2018 06:20:00    7.07    8.43   11.00      40     1.6     5     1
  42035 10/18/2018 06:30:00    6.43    7.66   10.00      40     0.0     0     1
  42035 10/18/2018 06:40:00    6.43    7.66   10.00      40     0.0     0     1
  42035 10/18/2018 06:50:00    6.43    7.66   10.00      40     0.0     0     1
  42035 10/18/2018 12:00:00    6.63    7.55   10.05      41     0.3     1    31
  42035 10/18/2018 12:10:00    7.07    8.43   11.00      40     1.5     0     1
  42035 10/18/2018 12:20:00    8.43    7.07   11.00      50     1.5     5     1
  42035 10/18/2018 12:30:00    7.66    6.43   10.00      50     0.0     0     1
  42035 10/18/2018 12:40:00    7.07    8.43   11.00      40     0.0     0     1
  42035 10/18/2018 12:50:00    8.43    7.07   11.00      50     0.0     0     1
  42035 10/18/2018 18:00:00    8.38    5.63   10.09      56     0.3     1    31
  42035 10/18/2018 18:10:00    8.66    5.00   10.00      60     0.0     0     1
  42035 10/18/2018 18:20:00    8.66    5.00   10.00      60     1.8     6     1
  42035 10/18/2018 18:30:00    8.66    5.00   10.00      60     0.0     0     1
  42035 10/18/2018 18:40:00    8.66    5.00   10.00      60     0.0     0     1
  42035 10/18/2018 18:50:00    7.66    6.43   10.00      50     0.0     0     1
  42035 10/19/2018 00:00:00    7.77    6.16    9.91      52     0.3     1    31
  42035 10/19/2018 00:10:00    8.66    5.00   10.00      60     1.6     0     1
  42035 10/19/2018 00:20:00    8.66    5.00   10.00      60     1.6     7     1
  42035 10/19/2018 00:30:00    8.66    5.00   10.00      60     0.0     0     1
  42035 10/19/2018 00:40:00    9.53    5.50   11.00      60     0.0     0     1
  42035 10/19/2018 00:50:00    9.53    5.50   11.00      60     0.0     0     1
  42035 10/19/2018 06:00:00    9.68    4.87   10.83      63     0.3     1    31
  42035 10/19/2018 06:10:00   97.78   15.49   99.00      81     1.9     8     1
  42035 10/19/2018 06:20:00    9.53    5.50   11.00      60     1.9     0     1
  42035 10/19/2018 06:30:00   10.34    3.76   11.00      70     0.0     0     1
  42035 10/19/2018 06:40:00   10.34    3.76   11.00      70     0.0     0     1
  42035 10/19/2018 06:50:00   10.34    3.76   11.00      70     0.0     0     1